createdAt,value
2023-02-28T00:00:53.204Z,6.13
2023-02-28T00:03:19.733Z,6.05
2023-02-28T00:05:46.535Z,6.10
2023-02-28T00:08:14.115Z,6.06
2023-02-28T00:10:40.623Z,6.03
2023-02-28T00:13:08.164Z,5.92
2023-02-28T00:15:34.729Z,6.00
2023-02-28T00:18:01.358Z,5.91
2023-02-28T00:20:27.909Z,5.74
2023-02-28T00:22:55.017Z,5.92
2023-02-28T00:25:24.515Z,5.89
2023-02-28T00:27:50.985Z,5.85
2023-02-28T00:30:19.901Z,5.81
2023-02-28T00:32:46.432Z,5.56
2023-02-28T00:35:13.482Z,5.70
2023-02-28T00:37:40.081Z,5.68
2023-02-28T00:40:07.832Z,5.67
2023-02-28T00:42:37.325Z,5.64
2023-02-28T00:45:09.056Z,5.61
2023-02-28T00:47:35.859Z,5.58
2023-02-28T00:50:03.112Z,5.58
2023-02-28T00:52:29.644Z,5.58
2023-02-28T00:54:56.258Z,5.38
2023-02-28T00:57:23.181Z,5.51
2023-02-28T00:59:49.704Z,5.29
2023-02-28T01:02:16.494Z,5.17
2023-02-28T01:04:43.076Z,5.41
2023-02-28T01:07:10.197Z,5.39
2023-02-28T01:09:36.640Z,5.35
2023-02-28T01:12:03.210Z,5.25
2023-02-28T01:14:29.733Z,5.12
2023-02-28T01:16:56.116Z,5.25
2023-02-28T01:19:22.560Z,5.05
2023-02-28T01:21:49.016Z,5.16
2023-02-28T01:24:15.647Z,5.14
2023-02-28T01:26:42.342Z,5.04
2023-02-28T01:29:08.842Z,5.09
2023-02-28T01:31:35.708Z,5.04
2023-02-28T01:34:02.603Z,4.94
2023-02-28T01:36:29.149Z,5.06
2023-02-28T01:38:55.579Z,4.96
2023-02-28T01:41:28.899Z,4.78
2023-02-28T01:44:04.076Z,5.04
2023-02-28T01:46:35.952Z,5.05
2023-02-28T01:49:18.763Z,4.99
2023-02-28T01:51:51.819Z,5.01
2023-02-28T01:54:23.557Z,4.98
2023-02-28T01:57:12.968Z,5.00
2023-02-28T01:59:51.053Z,4.97
2023-02-28T02:02:19.774Z,4.91
2023-02-28T02:04:54.523Z,4.94
2023-02-28T02:07:21.391Z,4.91
2023-02-28T02:09:47.863Z,4.94
2023-02-28T02:12:45.144Z,4.98
2023-02-28T02:15:17.086Z,4.97
2023-02-28T02:17:48.584Z,4.97
2023-02-28T02:20:41.096Z,5.02
2023-02-28T02:23:25.537Z,5.02
2023-02-28T02:26:12.977Z,5.05
2023-02-28T02:29:11.154Z,5.07
2023-02-28T02:31:56.355Z,5.06
2023-02-28T02:34:57.962Z,5.11
2023-02-28T02:37:29.868Z,5.04
2023-02-28T02:40:05.365Z,5.07
2023-02-28T02:42:51.827Z,5.11
2023-02-28T02:45:37.300Z,5.09
2023-02-28T02:48:07.549Z,4.72
2023-02-28T02:50:44.116Z,5.17
2023-02-28T02:53:13.490Z,5.06
2023-02-28T02:55:43.952Z,5.03
2023-02-28T02:58:15.761Z,4.95
2023-02-28T03:00:47.630Z,4.92
2023-02-28T03:03:18.714Z,4.86
2023-02-28T03:05:51.935Z,4.73
2023-02-28T03:08:18.964Z,4.71
2023-02-28T03:10:47.661Z,4.64
2023-02-28T03:13:35.677Z,4.56
2023-02-28T03:16:35.581Z,4.48
2023-02-28T03:19:26.689Z,4.37
2023-02-28T03:22:11.190Z,4.24
2023-02-28T03:24:43.716Z,4.17
2023-02-28T03:27:17.516Z,4.08
2023-02-28T03:29:51.736Z,4.01
2023-02-28T03:32:26.606Z,3.77
2023-02-28T03:35:14.726Z,3.89
2023-02-28T03:37:44.875Z,3.82
2023-02-28T03:40:19.049Z,3.74
2023-02-28T03:42:59.886Z,3.77
2023-02-28T03:45:30.849Z,3.75
2023-02-28T03:48:19.096Z,3.74
2023-02-28T03:50:48.915Z,3.67
2023-02-28T03:53:30.068Z,3.54
2023-02-28T03:56:10.429Z,3.57
2023-02-28T03:59:02.234Z,3.50
2023-02-28T04:01:37.652Z,3.40
2023-02-28T04:04:05.212Z,3.27
2023-02-28T04:06:33.445Z,3.23
2023-02-28T04:09:00.820Z,2.98
2023-02-28T04:11:39.065Z,3.03
2023-02-28T04:14:08.337Z,2.91
2023-02-28T04:16:37.543Z,2.80
2023-02-28T04:19:06.298Z,2.69
2023-02-28T04:21:41.796Z,2.57
2023-02-28T04:24:14.965Z,2.17
2023-02-28T04:26:44.570Z,2.22
2023-02-28T04:29:13.374Z,2.14
2023-02-28T04:31:40.430Z,2.15
2023-02-28T04:34:06.911Z,1.89
2023-02-28T04:36:33.722Z,1.95
2023-02-28T04:39:00.120Z,1.91
2023-02-28T04:41:29.635Z,1.85
2023-02-28T04:43:58.508Z,1.80
2023-02-28T04:46:25.152Z,1.71
2023-02-28T04:48:51.640Z,1.57
2023-02-28T04:51:19.651Z,1.59
2023-02-28T04:53:47.026Z,1.49
2023-02-28T04:56:16.759Z,1.53
2023-02-28T04:58:43.896Z,1.35
2023-02-28T05:01:28.990Z,1.39
2023-02-28T05:03:57.685Z,1.01
2023-02-28T05:06:26.621Z,1.21
2023-02-28T05:08:54.055Z,0.81
2023-02-28T05:11:21.995Z,0.95
2023-02-28T05:13:48.933Z,0.69
2023-02-28T05:16:16.325Z,0.88
2023-02-28T05:18:43.076Z,0.52
2023-02-28T05:21:38.985Z,0.75
2023-02-28T05:24:08.866Z,0.45
2023-02-28T05:26:37.377Z,0.58
2023-02-28T05:29:04.032Z,0.40
2023-02-28T05:31:30.831Z,0.44
2023-02-28T05:33:57.682Z,0.17
2023-02-28T05:36:24.670Z,0.33
2023-02-28T05:38:51.976Z,0.24
2023-02-28T05:41:20.854Z,0.22
2023-02-28T05:43:48.157Z,0.15
2023-02-28T05:46:15.005Z,-0.24
2023-02-28T05:48:42.787Z,0.04
2023-02-28T05:51:09.793Z,0.00
2023-02-28T05:53:36.802Z,-0.05
2023-02-28T05:56:04.123Z,-0.34
2023-02-28T05:58:31.991Z,-0.42
2023-02-28T06:01:00.170Z,-0.20
2023-02-28T06:03:27.608Z,-0.24
2023-02-28T06:05:54.442Z,-0.26
2023-02-28T06:08:21.239Z,-0.32
2023-02-28T06:10:47.722Z,-0.34
2023-02-28T06:13:14.229Z,-0.31
2023-02-28T06:15:40.743Z,-0.32
2023-02-28T06:18:07.906Z,-0.32
2023-02-28T06:20:35.431Z,-0.42
2023-02-28T06:23:01.918Z,-0.30
2023-02-28T06:25:28.799Z,-0.31
2023-02-28T06:27:56.219Z,-0.35
2023-02-28T06:30:26.250Z,-0.39
2023-02-28T06:32:53.088Z,-0.31
2023-02-28T06:35:19.626Z,-0.41
2023-02-28T06:37:46.138Z,-0.60
2023-02-28T06:40:13.968Z,-0.33
2023-02-28T06:42:40.486Z,-0.31
2023-02-28T06:45:10.271Z,-0.38
2023-02-28T06:47:38.968Z,-0.27
2023-02-28T06:50:06.681Z,-0.24
2023-02-28T06:52:33.437Z,-0.58
2023-02-28T06:55:02.879Z,-0.23
2023-02-28T06:57:34.494Z,-0.18
2023-02-28T07:00:02.664Z,-0.17
2023-02-28T07:02:29.311Z,-0.14
2023-02-28T07:04:55.800Z,-0.16
2023-02-28T07:07:22.374Z,-0.45
2023-02-28T07:09:48.836Z,-0.22
2023-02-28T07:12:15.282Z,-0.08
2023-02-28T07:14:41.861Z,0.02
2023-02-28T07:17:10.018Z,0.07
2023-02-28T07:19:36.507Z,0.04
2023-02-28T07:22:03.841Z,0.20
2023-02-28T07:24:30.416Z,0.21
2023-02-28T07:26:57.479Z,0.35
2023-02-28T07:29:24.009Z,0.44
2023-02-28T07:31:54.069Z,0.53
2023-02-28T07:34:21.034Z,0.67
2023-02-28T07:36:47.482Z,0.70
2023-02-28T07:39:13.902Z,0.79
2023-02-28T07:41:44.256Z,0.84
2023-02-28T07:44:11.964Z,1.07
2023-02-28T07:46:38.821Z,1.11
2023-02-28T07:49:05.681Z,1.28
2023-02-28T07:51:32.364Z,1.44
2023-02-28T07:53:59.106Z,1.61
2023-02-28T07:56:25.521Z,1.50
2023-02-28T07:58:51.948Z,1.90
2023-02-28T08:01:20.398Z,2.00
2023-02-28T08:03:46.882Z,2.18
2023-02-28T08:06:19.221Z,2.31
2023-02-28T08:08:46.104Z,2.22
2023-02-28T08:11:12.582Z,2.44
2023-02-28T08:13:38.996Z,2.70
2023-02-28T08:16:05.810Z,2.87
2023-02-28T08:18:33.405Z,2.92
2023-02-28T08:21:00.222Z,2.92
2023-02-28T08:23:26.674Z,3.16
2023-02-28T08:25:57.301Z,3.25
2023-02-28T08:28:26.992Z,3.52
2023-02-28T08:30:53.711Z,3.65
2023-02-28T08:33:20.386Z,3.77
2023-02-28T08:35:46.938Z,4.04
2023-02-28T08:38:16.448Z,4.04
2023-02-28T08:40:43.669Z,4.42
2023-02-28T08:43:10.395Z,4.41
2023-02-28T08:45:37.130Z,4.73
2023-02-28T08:48:03.913Z,4.87
2023-02-28T08:50:30.392Z,5.00
2023-02-28T08:52:56.790Z,5.02
2023-02-28T08:55:23.381Z,5.24
2023-02-28T08:57:49.797Z,5.42
2023-02-28T09:00:16.551Z,5.61
2023-02-28T09:02:44.607Z,5.79
2023-02-28T09:05:11.041Z,6.01
2023-02-28T09:07:37.616Z,6.20
2023-02-28T09:10:04.578Z,6.40
2023-02-28T09:12:35.447Z,6.50
2023-02-28T09:15:02.443Z,6.63
2023-02-28T09:17:30.786Z,6.78
2023-02-28T09:19:58.031Z,6.94
2023-02-28T09:22:24.697Z,7.11
2023-02-28T09:24:51.081Z,7.24
2023-02-28T09:27:17.512Z,7.24
2023-02-28T09:29:44.136Z,7.54
2023-02-28T09:32:10.622Z,7.91
2023-02-28T09:34:38.008Z,8.21
2023-02-28T09:37:04.774Z,8.43
2023-02-28T09:39:31.949Z,8.63
2023-02-28T09:41:58.992Z,8.89
2023-02-28T09:44:40.412Z,9.08
2023-02-28T09:47:30.037Z,9.37
2023-02-28T09:49:59.579Z,9.50
2023-02-28T09:52:31.428Z,9.67
2023-02-28T09:55:12.832Z,9.80
2023-02-28T09:57:42.191Z,9.96
2023-02-28T10:00:20.347Z,10.11
2023-02-28T10:03:19.217Z,10.38
2023-02-28T10:06:22.756Z,10.72
2023-02-28T10:09:14.832Z,10.85
2023-02-28T10:11:42.305Z,11.01
2023-02-28T10:14:15.316Z,11.24
2023-02-28T10:16:48.771Z,11.43
2023-02-28T10:19:26.921Z,11.64
2023-02-28T10:22:00.138Z,11.91
2023-02-28T10:24:29.638Z,12.08
2023-02-28T10:27:02.752Z,12.12
2023-02-28T10:29:33.696Z,12.56
2023-02-28T10:32:09.332Z,12.75
2023-02-28T10:34:35.762Z,12.83
2023-02-28T10:37:14.570Z,12.89
2023-02-28T10:39:48.009Z,13.17
2023-02-28T10:42:29.719Z,13.27
2023-02-28T10:45:13.373Z,13.35
2023-02-28T10:47:58.978Z,13.44
2023-02-28T10:50:28.601Z,13.44
2023-02-28T10:52:55.812Z,13.48
2023-02-28T10:55:26.106Z,13.46
2023-02-28T10:57:53.480Z,13.49
2023-02-28T11:00:23.520Z,13.58
2023-02-28T11:02:49.967Z,13.57
2023-02-28T11:05:30.876Z,13.69
2023-02-28T11:08:05.615Z,13.61
2023-02-28T11:10:35.706Z,13.76
2023-02-28T11:13:02.556Z,14.16
2023-02-28T11:15:34.219Z,13.99
2023-02-28T11:18:27.016Z,14.05
2023-02-28T11:20:57.381Z,14.06
2023-02-28T11:23:28.565Z,13.95
2023-02-28T11:25:59.195Z,13.99
2023-02-28T11:28:32.563Z,13.88
2023-02-28T11:31:25.604Z,13.96
2023-02-28T11:33:56.866Z,14.10
2023-02-28T11:36:29.321Z,14.41
2023-02-28T11:39:02.573Z,14.48
2023-02-28T11:41:40.849Z,14.56
2023-02-28T11:44:19.795Z,14.63
2023-02-28T11:47:01.721Z,14.79
2023-02-28T11:49:53.322Z,14.89
2023-02-28T11:52:46.437Z,14.96
2023-02-28T11:55:24.646Z,14.92
2023-02-28T11:57:55.315Z,14.92
2023-02-28T12:00:31.752Z,14.83
2023-02-28T12:03:18.222Z,14.79
2023-02-28T12:05:55.822Z,14.82
2023-02-28T12:08:45.649Z,14.90
2023-02-28T12:11:46.103Z,14.89
2023-02-28T12:14:24.429Z,14.84
2023-02-28T12:17:07.908Z,14.87
2023-02-28T12:19:45.815Z,14.90
2023-02-28T12:22:32.029Z,15.06
2023-02-28T12:25:07.729Z,15.10
2023-02-28T12:27:39.743Z,15.05
2023-02-28T12:30:19.364Z,15.14
2023-02-28T12:32:59.000Z,15.20
2023-02-28T12:35:34.174Z,15.22
2023-02-28T12:38:14.258Z,15.12
2023-02-28T12:41:06.908Z,15.28
2023-02-28T12:43:42.791Z,15.13
2023-02-28T12:46:24.464Z,15.08
2023-02-28T12:48:56.643Z,14.99
2023-02-28T12:51:24.765Z,14.80
2023-02-28T12:54:18.831Z,15.05
2023-02-28T12:56:45.220Z,15.03
2023-02-28T12:59:18.236Z,15.06
2023-02-28T13:02:12.969Z,14.81
2023-02-28T13:05:16.834Z,15.05
2023-02-28T13:08:01.646Z,15.27
2023-02-28T13:10:50.984Z,14.95
2023-02-28T13:13:20.431Z,14.69
2023-02-28T13:16:08.824Z,14.54
2023-02-28T13:18:42.758Z,14.29
2023-02-28T13:21:22.358Z,14.16
2023-02-28T13:24:04.070Z,14.16
2023-02-28T13:26:36.515Z,14.02
2023-02-28T13:29:11.923Z,13.94
2023-02-28T13:32:06.717Z,13.93
2023-02-28T13:34:34.982Z,13.76
2023-02-28T13:37:22.960Z,13.64
2023-02-28T13:40:08.202Z,13.58
2023-02-28T13:42:48.322Z,13.57
2023-02-28T13:45:14.652Z,13.68
2023-02-28T13:47:44.448Z,13.72
2023-02-28T13:50:27.324Z,13.72
2023-02-28T13:53:12.379Z,13.71
2023-02-28T13:56:06.733Z,13.56
2023-02-28T13:58:59.483Z,13.56
2023-02-28T14:01:47.209Z,13.46
2023-02-28T14:04:43.194Z,13.57
2023-02-28T14:07:17.930Z,13.69
2023-02-28T14:09:53.302Z,13.68
2023-02-28T14:12:55.658Z,13.71
2023-02-28T14:15:28.378Z,13.62
2023-02-28T14:17:57.186Z,13.49
2023-02-28T14:20:27.644Z,12.60
2023-02-28T14:23:17.370Z,12.99
2023-02-28T14:25:53.855Z,12.91
2023-02-28T14:28:27.375Z,13.12
2023-02-28T14:31:08.858Z,13.18
2023-02-28T14:33:48.337Z,13.31
2023-02-28T14:36:23.944Z,13.48
2023-02-28T14:38:57.819Z,13.59
2023-02-28T14:41:39.750Z,13.70
2023-02-28T14:44:18.584Z,13.78
2023-02-28T14:46:47.031Z,13.45
2023-02-28T14:49:19.362Z,13.68
2023-02-28T14:51:48.544Z,13.73
2023-02-28T14:54:17.550Z,13.84
2023-02-28T14:56:44.055Z,13.86
2023-02-28T14:59:36.965Z,13.78
2023-02-28T15:02:17.386Z,13.66
2023-02-28T15:04:43.930Z,13.51
2023-02-28T15:07:16.469Z,13.29
2023-02-28T15:09:43.087Z,13.31
2023-02-28T15:12:15.870Z,13.19
2023-02-28T15:14:45.307Z,13.25
2023-02-28T15:17:24.076Z,13.15
2023-02-28T15:19:54.012Z,12.99
2023-02-28T15:22:36.754Z,12.97
2023-02-28T15:25:05.078Z,12.92
2023-02-28T15:27:34.120Z,12.88
2023-02-28T15:30:06.699Z,12.81
2023-02-28T15:32:42.226Z,12.85
2023-02-28T15:35:21.708Z,12.89
2023-02-28T15:37:54.467Z,12.88
2023-02-28T15:40:26.862Z,12.97
2023-02-28T15:43:04.540Z,13.05
2023-02-28T15:45:56.232Z,13.13
2023-02-28T15:48:33.576Z,13.29
2023-02-28T15:51:18.395Z,13.30
2023-02-28T15:53:55.352Z,13.21
2023-02-28T15:56:26.437Z,13.29
2023-02-28T15:58:58.582Z,13.26
2023-02-28T16:01:45.478Z,13.21
2023-02-28T16:04:18.413Z,12.81
2023-02-28T16:07:06.147Z,12.80
2023-02-28T16:09:34.964Z,12.56
2023-02-28T16:12:03.516Z,12.26
2023-02-28T16:14:31.759Z,12.01
2023-02-28T16:17:05.529Z,11.73
2023-02-28T16:19:33.892Z,11.40
2023-02-28T16:22:02.017Z,10.88
2023-02-28T16:24:28.689Z,10.70
2023-02-28T16:26:56.827Z,10.48
2023-02-28T16:29:28.060Z,10.29
2023-02-28T16:31:55.050Z,9.85
2023-02-28T16:34:22.288Z,9.80
2023-02-28T16:36:49.567Z,9.59
2023-02-28T16:39:15.983Z,9.41
2023-02-28T16:41:46.842Z,9.23
2023-02-28T16:44:34.698Z,9.04
2023-02-28T16:47:02.436Z,8.80
2023-02-28T16:49:30.057Z,8.54
2023-02-28T16:51:56.612Z,8.21
2023-02-28T16:54:23.228Z,8.26
2023-02-28T16:56:50.593Z,8.11
2023-02-28T16:59:22.312Z,7.95
2023-02-28T17:01:49.198Z,7.75
2023-02-28T17:04:16.606Z,7.60
2023-02-28T17:06:43.033Z,7.19
2023-02-28T17:09:17.201Z,7.24
2023-02-28T17:11:43.794Z,6.88
2023-02-28T17:14:10.257Z,6.88
2023-02-28T17:16:40.820Z,6.77
2023-02-28T17:19:11.869Z,6.44
2023-02-28T17:21:38.750Z,6.39
2023-02-28T17:24:05.907Z,6.25
2023-02-28T17:26:33.078Z,6.07
2023-02-28T17:28:59.706Z,5.90
2023-02-28T17:31:27.761Z,5.75
2023-02-28T17:33:56.067Z,5.58
2023-02-28T17:36:25.629Z,5.50
2023-02-28T17:38:54.070Z,5.38
2023-02-28T17:41:20.533Z,5.20
2023-02-28T17:43:46.944Z,5.09
2023-02-28T17:46:22.664Z,4.86
2023-02-28T17:48:50.419Z,4.82
2023-02-28T17:51:18.796Z,4.68
2023-02-28T17:53:45.634Z,4.47
2023-02-28T17:56:14.639Z,4.44
2023-02-28T17:58:41.055Z,4.30
2023-02-28T18:01:07.778Z,4.24
2023-02-28T18:03:34.505Z,4.18
2023-02-28T18:06:01.577Z,3.98
2023-02-28T18:08:28.009Z,4.03
2023-02-28T18:10:54.537Z,3.96
2023-02-28T18:13:20.978Z,3.89
2023-02-28T18:15:48.445Z,3.81
2023-02-28T18:18:16.640Z,3.60
2023-02-28T18:20:43.356Z,3.65
2023-02-28T18:23:10.452Z,3.46
2023-02-28T18:25:38.646Z,3.53
2023-02-28T18:28:05.651Z,3.25
2023-02-28T18:30:37.331Z,3.39
2023-02-28T18:33:04.626Z,3.10
2023-02-28T18:35:37.559Z,3.26
2023-02-28T18:38:22.471Z,3.18
2023-02-28T18:41:01.031Z,3.12
2023-02-28T18:43:32.531Z,3.04
2023-02-28T18:46:04.615Z,2.98
2023-02-28T18:48:31.023Z,2.62
2023-02-28T18:50:57.615Z,2.83
2023-02-28T18:53:24.139Z,2.74
2023-02-28T18:55:50.548Z,2.70
2023-02-28T18:58:16.999Z,2.33
2023-02-28T19:00:44.565Z,2.56
2023-02-28T19:03:12.728Z,2.39
2023-02-28T19:05:39.851Z,2.44
2023-02-28T19:08:06.285Z,2.35
2023-02-28T19:10:33.417Z,2.29
2023-02-28T19:12:59.995Z,1.94
2023-02-28T19:15:26.732Z,1.92
2023-02-28T19:17:53.136Z,2.02
2023-02-28T19:20:19.804Z,2.00
2023-02-28T19:22:46.436Z,1.78
2023-02-28T19:25:12.829Z,1.87
2023-02-28T19:27:39.401Z,1.82
2023-02-28T19:30:07.399Z,1.80
2023-02-28T19:32:33.917Z,1.68
2023-02-28T19:35:00.745Z,1.72
2023-02-28T19:37:27.133Z,1.68
2023-02-28T19:39:56.865Z,1.58
2023-02-28T19:42:23.354Z,1.35
2023-02-28T19:44:49.752Z,1.54
2023-02-28T19:47:16.513Z,1.52
2023-02-28T19:49:42.998Z,1.23
2023-02-28T19:52:13.307Z,1.39
2023-02-28T19:54:42.230Z,1.40
2023-02-28T19:57:08.681Z,1.36
2023-02-28T19:59:39.226Z,1.24
2023-02-28T20:02:14.239Z,1.29
2023-02-28T20:04:40.817Z,1.24
2023-02-28T20:07:07.336Z,1.23
2023-02-28T20:09:33.944Z,1.22
2023-02-28T20:12:00.899Z,1.04
2023-02-28T20:14:27.643Z,1.16
2023-02-28T20:16:55.953Z,1.16
2023-02-28T20:19:23.596Z,0.96
2023-02-28T20:21:50.026Z,1.09
2023-02-28T20:24:16.647Z,1.05
2023-02-28T20:26:43.228Z,0.99
2023-02-28T20:29:09.717Z,0.84
2023-02-28T20:31:39.820Z,0.87
2023-02-28T20:34:06.516Z,0.93
2023-02-28T20:36:33.138Z,0.70
2023-02-28T20:39:00.474Z,0.68
2023-02-28T20:41:27.692Z,0.66
2023-02-28T20:43:59.122Z,0.81
2023-02-28T20:46:26.162Z,0.82
2023-02-28T20:48:53.092Z,0.78
2023-02-28T20:51:19.958Z,0.56
2023-02-28T20:53:46.452Z,0.65
2023-02-28T20:56:20.756Z,0.68
2023-02-28T20:58:48.821Z,0.64
2023-02-28T21:01:16.821Z,0.65
2023-02-28T21:03:48.892Z,0.63
2023-02-28T21:06:17.278Z,0.61
2023-02-28T21:08:44.881Z,0.61
2023-02-28T21:11:14.089Z,0.58
2023-02-28T21:13:42.014Z,0.55
2023-02-28T21:16:11.814Z,0.24
2023-02-28T21:18:38.505Z,0.47
2023-02-28T21:21:07.708Z,0.42
2023-02-28T21:23:34.203Z,0.14
2023-02-28T21:26:10.164Z,0.36
2023-02-28T21:28:37.888Z,0.33
2023-02-28T21:31:09.147Z,0.29
2023-02-28T21:33:35.895Z,-0.02
2023-02-28T21:36:07.891Z,0.20
2023-02-28T21:38:35.088Z,0.11
2023-02-28T21:41:16.622Z,0.19
2023-02-28T21:43:44.375Z,0.10
2023-02-28T21:46:14.398Z,0.08
2023-02-28T21:48:43.353Z,0.02
2023-02-28T21:51:14.168Z,0.10
2023-02-28T21:53:41.315Z,0.08
2023-02-28T21:56:15.396Z,0.08
2023-02-28T21:58:42.378Z,0.06
2023-02-28T22:01:17.897Z,0.07
2023-02-28T22:03:45.292Z,0.06
2023-02-28T22:06:14.594Z,0.02
2023-02-28T22:08:42.652Z,-0.02
2023-02-28T22:11:10.475Z,-0.04
2023-02-28T22:13:37.921Z,-0.01
2023-02-28T22:16:12.971Z,0.04
2023-02-28T22:18:40.847Z,0.02
2023-02-28T22:21:10.281Z,-0.12
2023-02-28T22:23:41.259Z,0.00
2023-02-28T22:26:10.412Z,-0.01
2023-02-28T22:28:37.505Z,-0.13
2023-02-28T22:31:31.030Z,-0.05
2023-02-28T22:34:00.509Z,-0.09
2023-02-28T22:36:28.374Z,-0.14
2023-02-28T22:38:55.277Z,-0.45
2023-02-28T22:41:23.679Z,-0.50
2023-02-28T22:43:53.330Z,-0.15
2023-02-28T22:46:20.503Z,-0.16
2023-02-28T22:48:48.694Z,-0.20
2023-02-28T22:51:18.567Z,-0.21
2023-02-28T22:53:48.500Z,-0.15
2023-02-28T22:56:17.401Z,-0.12
2023-02-28T22:58:45.492Z,-0.14
2023-02-28T23:01:16.718Z,-0.08
2023-02-28T23:03:43.823Z,0.00
2023-02-28T23:06:21.189Z,-0.02
2023-02-28T23:08:48.006Z,0.15
2023-02-28T23:11:24.318Z,0.08
2023-02-28T23:14:00.161Z,0.18
2023-02-28T23:16:31.740Z,0.18
2023-02-28T23:19:01.794Z,0.03
2023-02-28T23:21:28.374Z,0.17
2023-02-28T23:23:55.621Z,0.02
2023-02-28T23:26:22.913Z,0.06
2023-02-28T23:28:49.872Z,0.16
2023-02-28T23:31:16.370Z,0.07
2023-02-28T23:33:42.884Z,-0.13
2023-02-28T23:36:11.721Z,0.21
2023-02-28T23:38:39.807Z,0.21
2023-02-28T23:41:10.837Z,0.12
2023-02-28T23:43:37.669Z,0.15
2023-02-28T23:46:04.919Z,0.26
2023-02-28T23:48:32.015Z,0.30
2023-02-28T23:51:03.786Z,0.29
2023-02-28T23:53:31.363Z,0.32
2023-02-28T23:55:57.849Z,0.33
2023-02-28T23:58:24.407Z,0.02
